Thunder radar more information blitzortung!


Radar de pluja more information rain snow radar


Visita la nostra xarxa de llocs de meteo:

Template documentation
and downloads

And another site



No particular awareness of the weather is required.    There are no Weather-warnings

Pagina Historial Weather Underground text

Diari Resum Juliol 22, 2017 Unitats:  Imperial    Mètric   Tant
« Previous Dia
SegĂźent Dia »
Diari Setmana Mensual Anual Personalitzada
  Maxima: Minima: Media:
Temperatura: 90.5 °F 65.7 °F 79.3 °F
Punt de rosada: 68.5 °F 62.1 °F 65.1 °F
Humitat: 89 % 46 % 63 %
Wind Speed: 12.7 mph 0 mph 3.5 mph
RĂ fegues de vent: 13 mph - -
Vent:- - South
Pression baro: 30 in 29.8 in -
Precipitacions: 0 in    
Historical Graphs
 
 
Dades de taula per Juliol 22, 2017
Temps Temperatura Punt de rosada Pression baro Vent Wind Speed RĂ fegues de vent Humitat Rainfall Rate (Hourly)
00:00 67.3 °F 63 °F 29.9 in Calm     86 % 0 in
00:03 72.3 °F 63.7 °F 29.8 in WSW 1.2 mph 1.2 mph 74 % 0 in
00:10 67.3 °F 63.3 °F 29.9 in Calm   1 mph 87 % 0 in
00:20 67.1 °F 63.1 °F 29.9 in Calm     87 % 0 in
00:30 67.1 °F 63.1 °F 29.9 in Calm     87 % 0 in
00:40 66.9 °F 63 °F 29.9 in Calm     87 % 0 in
00:50 66.6 °F 62.6 °F 29.9 in SSW 2 mph 2 mph 87 % 0 in
01:00 66.4 °F 62.4 °F 29.9 in SW 1 mph 3 mph 87 % 0 in
01:10 66.4 °F 62.8 °F 29.9 in Calm   1 mph 88 % 0 in
01:20 66.4 °F 62.8 °F 29.9 in Calm     88 % 0 in
01:30 66.4 °F 62.8 °F 29.9 in WSW 1 mph 1 mph 88 % 0 in
01:40 66.4 °F 62.8 °F 29.9 in NNE 1 mph 2 mph 88 % 0 in
01:50 65.7 °F 62.1 °F 29.9 in Calm   1 mph 88 % 0 in
02:00 65.8 °F 62.2 °F 29.9 in SSW 1 mph 2 mph 88 % 0 in
02:10 65.8 °F 62.4 °F 29.9 in Calm   1 mph 89 % 0 in
02:20 66 °F 62.8 °F 29.9 in Calm     89 % 0 in
02:30 66.2 °F 63 °F 29.9 in SW 1 mph 2 mph 89 % 0 in
02:40 66.4 °F 62.8 °F 29.9 in SW 1 mph 2 mph 88 % 0 in
02:50 66.7 °F 63.3 °F 29.9 in SW 1 mph 2 mph 89 % 0 in
03:00 67.1 °F 63.3 °F 29.9 in SW 1 mph 2 mph 88 % 0 in
03:10 68.7 °F 64.8 °F 29.9 in SE 1 mph 2 mph 87 % 0 in
03:20 69.8 °F 64.8 °F 29.9 in NE 1 mph 3 mph 84 % 0 in
03:30 70.7 °F 64.9 °F 29.9 in NE 2 mph 3 mph 82 % 0 in
03:40 70.9 °F 64.8 °F 29.9 in NE 3 mph 3 mph 81 % 0 in
03:50 71.8 °F 65.3 °F 29.9 in ENE 2 mph 3 mph 80 % 0 in
04:00 72.1 °F 65.3 °F 29.9 in NE 1 mph 4 mph 79 % 0 in
04:10 73.2 °F 65.8 °F 29.9 in NE 1 mph 3 mph 78 % 0 in
04:20 73.2 °F 65.1 °F 29.9 in NE 2 mph 2 mph 76 % 0 in
04:30 74.3 °F 65.8 °F 29.9 in Calm   3 mph 75 % 0 in
04:40 74.8 °F 66.4 °F 29.9 in SSW 2 mph 3 mph 75 % 0 in
09:39 74.8 °F 66.4 °F 29.9 in East 2.3 mph 2.4 mph 75 % 0 in
09:44 75.4 °F 66 °F 29.9 in SSE 3.5 mph 3.5 mph 73 % 0 in
09:49 75.2 °F 65.7 °F 29.9 in SE 3.5 mph 3.5 mph 72 % 0 in
09:55 76.1 °F 66.4 °F 29.9 in East 1 mph 3 mph 72 % 0 in
10:00 75.7 °F 65.3 °F 29.9 in ESE 2 mph 5 mph 70 % 0 in
10:05 76.8 °F 66.7 °F 29.9 in ESE 2 mph 3 mph 71 % 0 in
10:10 77 °F 66 °F 29.9 in East 1 mph 4 mph 69 % 0 in
10:15 77.4 °F 66.4 °F 29.9 in East 2 mph 4 mph 69 % 0 in
10:20 78.1 °F 67.1 °F 29.9 in Calm   4 mph 69 % 0 in
10:25 78.8 °F 67.3 °F 29.9 in South 2.3 mph 2.3 mph 68 % 0 in
10:30 78.8 °F 67.3 °F 29.9 in WSW 2.3 mph 2.6 mph 68 % 0 in
10:35 78.8 °F 66.9 °F 29.9 in West 3.5 mph 3.5 mph 67 % 0 in
10:40 77.7 °F 65.1 °F 29.9 in SE 5 mph 6 mph 65 % 0 in
10:45 78.3 °F 65.8 °F 29.9 in East 3 mph 5 mph 66 % 0 in
10:50 79.3 °F 66.9 °F 29.9 in North 2.3 mph 2.3 mph 66 % 0 in
10:55 80.1 °F 67.3 °F 29.9 in ESE 2 mph 2 mph 65 % 0 in
11:00 80.6 °F 66.7 °F 29.9 in NNW 3.5 mph 3.5 mph 63 % 0 in
11:05 81 °F 67.3 °F 29.9 in SW 3.6 mph 3.6 mph 63 % 0 in
11:06 80.8 °F 66.9 °F 29.9 in SW 4.6 mph 4.6 mph 63 % 0 in
11:11 80.8 °F 66.6 °F 29.9 in SW 3.5 mph 3.5 mph 62 % 0 in
11:12 80.8 °F 66.6 °F 29.9 in SSW 2.3 mph 2.3 mph 62 % 0 in
11:17 81.3 °F 66.6 °F 29.9 in SW 4.6 mph 4.6 mph 61 % 0 in
11:22 81.3 °F 66 °F 29.9 in West 4.6 mph 4.6 mph 60 % 0 in
11:27 81.7 °F 66 °F 29.9 in SSE 4.6 mph 4.6 mph 59 % 0 in
11:32 82.4 °F 66 °F 29.9 in SSE 2.3 mph 2.3 mph 58 % 0 in
11:37 82.8 °F 66 °F 29.9 in ENE 4.3 mph 4.3 mph 57 % 0 in
11:42 82.4 °F 65.7 °F 29.9 in NE 3.5 mph 3.6 mph 57 % 0 in
11:47 82.2 °F 65.5 °F 29.9 in SW 3.6 mph 3.6 mph 57 % 0 in
11:52 84 °F 66.6 °F 29.9 in SW 6.2 mph 6.2 mph 56 % 0 in
11:57 83.8 °F 65.5 °F 29.9 in SSW 4.6 mph 4.6 mph 54 % 0 in
12:02 84.4 °F 64.8 °F 29.9 in South 4.6 mph 4.6 mph 52 % 0 in
12:07 84.7 °F 65.7 °F 29.9 in SW 5.8 mph 5.8 mph 53 % 0 in
12:12 84.6 °F 65.5 °F 29.9 in SW 5.8 mph 5.8 mph 53 % 0 in
12:17 85.3 °F 65.1 °F 29.9 in ENE 4 mph 4 mph 51 % 0 in
12:22 84.4 °F 64.8 °F 29.9 in WSW 2.4 mph 2.4 mph 52 % 0 in
12:27 84.2 °F 64.8 °F 29.9 in ESE 5.8 mph 5.8 mph 52 % 0 in
12:32 84.2 °F 65.1 °F 29.9 in SW 2.3 mph 2.3 mph 53 % 0 in
12:37 83.8 °F 64.9 °F 29.9 in NE 4.6 mph 4.6 mph 53 % 0 in
12:42 82 °F 64.8 °F 29.9 in ESE 12.7 mph 12.7 mph 56 % 0 in
12:47 82.6 °F 65.8 °F 29.9 in South 6.9 mph 6.9 mph 57 % 0 in
12:52 82.4 °F 66 °F 29.9 in ESE 4.6 mph 4.6 mph 58 % 0 in
12:57 81.9 °F 65.7 °F 29.9 in ESE 6.9 mph 6.9 mph 58 % 0 in
13:02 81 °F 65.3 °F 29.9 in ESE 9.2 mph 9.2 mph 59 % 0 in
13:07 81 °F 65.3 °F 29.9 in ESE 5.8 mph 5.8 mph 59 % 0 in
13:12 80.8 °F 65.7 °F 29.9 in East 4.6 mph 4.6 mph 60 % 0 in
13:17 80.8 °F 65.7 °F 29.9 in SSW 5.8 mph 5.8 mph 60 % 0 in
13:22 81 °F 65.3 °F 29.9 in SSW 5.8 mph 5.8 mph 59 % 0 in
13:27 81 °F 65.3 °F 29.9 in WSW 3.5 mph 3.5 mph 59 % 0 in
13:32 81.3 °F 65.7 °F 29.9 in WSW 2.3 mph 2.4 mph 59 % 0 in
13:37 81.9 °F 66 °F 29.9 in SSW 3.5 mph 3.5 mph 59 % 0 in
13:42 82.4 °F 66.6 °F 29.9 in ESE 2.3 mph 2.3 mph 59 % 0 in
13:47 82.4 °F 66.6 °F 29.9 in South 3.5 mph 3.5 mph 59 % 0 in
13:52 83.7 °F 67.8 °F 29.9 in SW 4.6 mph 4.6 mph 59 % 0 in
13:57 83.8 °F 67.5 °F 29.9 in WSW 1.2 mph 1.2 mph 58 % 0 in
13:59 83.8 °F 67.5 °F 29.9 in South 2.3 mph 2.3 mph 58 % 0 in
14:04 83.8 °F 67.5 °F 29.9 in SSW 2.4 mph   58 % 0 in
14:09 83.5 °F 67.1 °F 29.9 in South 2.3 mph 2.3 mph 58 % 0 in
14:15 83.5 °F 66 °F 29.9 in SSW 3 mph 5 mph 56 % 0 in
14:20 84.2 °F 66.7 °F 29.9 in SSW 2 mph 6 mph 56 % 0 in
14:25 84.2 °F 66.7 °F 29.9 in WSW 3 mph 6 mph 56 % 0 in
14:30 84.7 °F 66.7 °F 29.9 in South 4.6 mph 4.6 mph 55 % 0 in
14:35 84.9 °F 66.9 °F 29.9 in SSW 3 mph 9 mph 55 % 0 in
14:40 85.8 °F 67.3 °F 29.8 in SW 5.6 mph 5.6 mph 54 % 0 in
14:45 85.6 °F 67.1 °F 29.8 in SW 4.6 mph 4.6 mph 54 % 0 in
14:50 86.7 °F 67.5 °F 29.8 in SSE 4.6 mph 4.6 mph 53 % 0 in
14:55 88.3 °F 68.5 °F 29.9 in West 4.6 mph 4.6 mph 52 % 0 in
15:00 87.4 °F 67.1 °F 29.9 in SW 2.6 mph 2.6 mph 51 % 0 in
15:05 87.4 °F 67.1 °F 29.9 in SW 8.1 mph 8.1 mph 51 % 0 in
15:10 87.6 °F 67.3 °F 29.8 in SSW 5.8 mph 5.8 mph 51 % 0 in
15:15 87.3 °F 66.4 °F 29.8 in ENE 2.3 mph 2.3 mph 50 % 0 in
15:20 88.9 °F 67.3 °F 29.8 in WNW 3.8 mph 3.8 mph 49 % 0 in
15:25 88.7 °F 66.6 °F 29.9 in SW 3 mph 6 mph 48 % 0 in
15:30 89.1 °F 66.2 °F 29.9 in SSW 4.6 mph 4.6 mph 47 % 0 in
15:35 88.2 °F 66.6 °F 29.9 in ESE 5.8 mph 5.8 mph 49 % 0 in
15:40 88 °F 66.4 °F 29.9 in ESE 6.4 mph 6.4 mph 49 % 0 in
15:45 87.1 °F 66.7 °F 29.9 in ESE 3 mph 7 mph 51 % 0 in
15:50 87.6 °F 67.3 °F 29.9 in East 7.1 mph 7.1 mph 51 % 0 in
15:55 86.9 °F 66.6 °F 29.9 in ESE 3 mph 8 mph 51 % 0 in
16:00 86.5 °F 66.4 °F 29.9 in ESE 6.9 mph 6.9 mph 51 % 0 in
16:05 85.8 °F 65.7 °F 29.9 in East 3 mph 7 mph 51 % 0 in
16:10 86.2 °F 66.4 °F 29.9 in ENE 6 mph 10 mph 52 % 0 in
16:15 87.6 °F 66.7 °F 29.9 in SSE 3 mph 13 mph 50 % 0 in
16:20 88.9 °F 67.3 °F 29.9 in WNW 4.6 mph 4.6 mph 49 % 0 in
16:25 90.5 °F 67.5 °F 29.9 in SSE 3.6 mph 3.6 mph 47 % 0 in
16:30 88.7 °F 67.1 °F 29.9 in NE 3.6 mph 3.6 mph 49 % 0 in
16:35 88.7 °F 66.6 °F 29.9 in WSW 5.8 mph 5.8 mph 48 % 0 in
16:40 90.3 °F 67.5 °F 29.9 in SW 2.3 mph 2.3 mph 47 % 0 in
16:45 90.3 °F 67.5 °F 29.9 in WSW 5.8 mph 5.8 mph 47 % 0 in
16:50 89.4 °F 66.6 °F 29.9 in SSW 3 mph 7 mph 47 % 0 in
16:55 89.1 °F 65.7 °F 29.9 in SSE 2 mph 7 mph 46 % 0 in
17:00 86.7 °F 64 °F 29.9 in ESE 2 mph 5 mph 47 % 0 in
17:05 87.3 °F 64.6 °F 29.9 in ESE 2 mph 6 mph 47 % 0 in
17:10 87.8 °F 65.1 °F 29.9 in South 2 mph 5 mph 47 % 0 in
17:15 87.1 °F 64.9 °F 29.9 in SSW 3 mph 8 mph 48 % 0 in
17:17 87.1 °F 65.7 °F 29.9 in WSW 5.8 mph 5.8 mph 49 % 0 in
17:22 86.4 °F 64.9 °F 29.9 in SW 5.8 mph 5.8 mph 49 % 0 in
17:27 85.8 °F 64.9 °F 29.9 in SW 6.9 mph 6.9 mph 50 % 0 in
17:32 85.6 °F 64.9 °F 29.9 in SW 6.9 mph 6.9 mph 50 % 0 in
17:37 85.5 °F 64.8 °F 29.9 in SW 6.9 mph 6.9 mph 50 % 0 in
17:42 85.1 °F 64.9 °F 29.9 in West 6.9 mph 6.9 mph 51 % 0 in
17:47 84.6 °F 64.4 °F 29.9 in WSW 10.4 mph 10.4 mph 51 % 0 in
17:55 84.2 °F 64.8 °F 29.8 in SSW 8.1 mph 8.1 mph 52 % 0 in
18:00 84.2 °F 65.1 °F 29.8 in SW 6.9 mph 6.9 mph 53 % 0 in
18:05 84.2 °F 65.1 °F 29.9 in South 6.9 mph 6.9 mph 53 % 0 in
18:10 85.3 °F 65.7 °F 29.9 in SW 4.6 mph 4.6 mph 52 % 0 in
18:15 85.6 °F 66 °F 29.9 in SW 5.8 mph 5.8 mph 52 % 0 in
18:20 86 °F 66.4 °F 29.8 in SSW 9.2 mph 9.2 mph 52 % 0 in
18:25 85.8 °F 65.7 °F 29.8 in SSW 8.1 mph 8.1 mph 51 % 0 in
18:30 84.9 °F 64.8 °F 29.8 in SSW 6.9 mph 6.9 mph 51 % 0 in
18:35 84.9 °F 65.3 °F 29.9 in WSW 5.8 mph 5.8 mph 52 % 0 in
18:40 84.2 °F 64 °F 29.9 in WSW 8.1 mph 8.1 mph 51 % 0 in
18:45 83.7 °F 64.8 °F 29.9 in SW 8.1 mph 8.1 mph 53 % 0 in
18:50 83.3 °F 64.4 °F 29.9 in West 9.2 mph 9.2 mph 53 % 0 in
18:51 83.3 °F 64.4 °F 29.9 in South 9.2 mph 9.2 mph 53 % 0 in
18:56 82.8 °F 64.4 °F 29.9 in SW 12.7 mph 12.7 mph 54 % 0 in
19:01 82.6 °F 64.2 °F 29.9 in SW 9.2 mph 9.2 mph 54 % 0 in
19:06 82.6 °F 64.2 °F 29.9 in SW 8.1 mph 8.1 mph 54 % 0 in
19:10 75.4 °F 64 °F 30 in Calm     68 % 0 in
19:11 83.1 °F 64.8 °F 29.9 in South 5.8 mph 5.8 mph 54 % 0 in
19:16 83.7 °F 65.3 °F 29.9 in WSW 8.7 mph 8.7 mph 54 % 0 in
19:20 75.2 °F 64.2 °F 30 in Calm   1 mph 69 % 0 in
19:21 83.8 °F 65.5 °F 29.9 in South 5.8 mph 5.8 mph 54 % 0 in
19:26 83.7 °F 65.3 °F 29.9 in SW 7.8 mph 7.8 mph 54 % 0 in
19:30 75 °F 64.6 °F 30 in WNW 1 mph 1 mph 70 % 0 in
19:31 83.3 °F 64.9 °F 29.9 in SSW 5.8 mph 5.8 mph 54 % 0 in
19:36 83.3 °F 64.9 °F 29.9 in SSW 5.4 mph 5.4 mph 54 % 0 in
19:40 74.8 °F 64.8 °F 30 in Calm   1 mph 71 % 0 in
19:41 83.3 °F 64.9 °F 29.9 in SW 9.4 mph 9.4 mph 54 % 0 in
19:46 82.9 °F 64 °F 29.9 in South 8.1 mph 8.1 mph 53 % 0 in
19:50 74.5 °F 64.6 °F 30 in Calm   2 mph 71 % 0 in
19:51 82.6 °F 63.7 °F 29.9 in SSE 5.8 mph 5.9 mph 53 % 0 in
19:56 82.4 °F 63.5 °F 29.9 in South 8.1 mph 8.1 mph 53 % 0 in
20:00 74.3 °F 64.2 °F 30 in Calm   1 mph 71 % 0 in
20:01 82 °F 63.9 °F 29.9 in SSW 8.1 mph 8.1 mph 54 % 0 in
20:06 81.9 °F 63.7 °F 29.9 in SW 4.6 mph 4.6 mph 54 % 0 in
20:10 74.3 °F 64.8 °F 30 in Calm   1 mph 72 % 0 in
20:11 81.7 °F 63.3 °F 29.9 in SSW 5.8 mph 5.8 mph 54 % 0 in
20:16 81.5 °F 63.3 °F 29.9 in SW 4.6 mph 4.6 mph 54 % 0 in
20:20 74.3 °F 64.8 °F 30 in WSW 1 mph 2 mph 72 % 0 in
20:21 81.5 °F 63.3 °F 29.9 in SW 3.5 mph 3.5 mph 54 % 0 in
20:26 81.5 °F 63.9 °F 29.9 in SSW 4.6 mph 4.6 mph 55 % 0 in
20:30 74.3 °F 65.1 °F 30 in Calm   2 mph 73 % 0 in
20:31 81.1 °F 63.3 °F 29.9 in SSW 4.6 mph 4.6 mph 55 % 0 in
20:36 81 °F 63.3 °F 29.9 in WNW 6.9 mph 6.9 mph 55 % 0 in
20:40 74.1 °F 64.9 °F 30 in WSW 2 mph 3 mph 73 % 0 in
20:41 80.8 °F 63.7 °F 29.9 in SSW 5.4 mph 5.4 mph 56 % 0 in
20:46 80.4 °F 63.9 °F 29.9 in WSW 5.8 mph 5.8 mph 57 % 0 in
20:50 74.1 °F 65.3 °F 30 in WSW 1 mph 2 mph 74 % 0 in
20:51 80.2 °F 64 °F 29.9 in SW 3.5 mph 3.5 mph 58 % 0 in
20:56 80.1 °F 64 °F 29.9 in SW 5.8 mph 5.8 mph 58 % 0 in
21:00 74.1 °F 65.7 °F 30 in West 1 mph 1 mph 75 % 0 in
21:01 79.9 °F 63.9 °F 29.9 in SW 5.8 mph 5.8 mph 58 % 0 in
21:06 79.7 °F 64 °F 29.9 in SW 5.8 mph 5.8 mph 59 % 0 in
21:10 73.6 °F 65.1 °F 30 in NE 1 mph 2 mph 75 % 0 in
21:11 79.5 °F 63.9 °F 29.9 in SW 5.8 mph 5.8 mph 59 % 0 in
21:16 79.3 °F 63.9 °F 29.9 in SW 5.8 mph 5.8 mph 59 % 0 in
21:20 73.2 °F 65.1 °F 30 in ESE 2 mph 3 mph 76 % 0 in
21:21 79.2 °F 64 °F 29.9 in WSW 3.5 mph 3.5 mph 60 % 0 in
21:26 79 °F 63.9 °F 29.9 in SW 5.4 mph 5.4 mph 60 % 0 in
21:30 72.9 °F 64.6 °F 30 in East 1 mph 2 mph 75 % 0 in
21:31 78.8 °F 63.7 °F 29.9 in SSW 4.6 mph 4.6 mph 60 % 0 in
21:36 78.6 °F 63.7 °F 29.9 in SW 3.5 mph 3.5 mph 60 % 0 in
21:40 72.7 °F 64.2 °F 30 in East 1 mph 1 mph 75 % 0 in
21:41 78.4 °F 63.9 °F 29.9 in WSW 5.8 mph 5.8 mph 61 % 0 in
21:46 78.3 °F 63.7 °F 29.9 in SW 4.6 mph 4.6 mph 61 % 0 in
21:50 72.5 °F 64 °F 30 in Calm     75 % 0 in
21:51 78.1 °F 63.5 °F 29.9 in SSW 3.5 mph 3.5 mph 61 % 0 in
21:56 77.9 °F 63.3 °F 29.9 in WSW 3.5 mph 3.5 mph 61 % 0 in
22:00 72.1 °F 64.2 °F 30 in SSE 1 mph 2 mph 76 % 0 in
22:01 77.9 °F 63.3 °F 29.9 in WSW 3.5 mph 3.5 mph 61 % 0 in
22:06 77.7 °F 63.1 °F 29.9 in SW 3.5 mph 3.5 mph 61 % 0 in
22:10 72.1 °F 64.2 °F 30 in Calm   2 mph 76 % 0 in
22:11 77.5 °F 63.5 °F 29.9 in South 4.6 mph 4.6 mph 62 % 0 in
22:16 77.4 °F 63.3 °F 29.9 in SW 2.3 mph 2.3 mph 62 % 0 in
22:20 72.3 °F 64.2 °F 30 in Calm   2 mph 76 % 0 in
22:21 77.2 °F 63.1 °F 29.9 in SW 3.5 mph 3.5 mph 62 % 0 in
22:26 77.2 °F 63.7 °F 29.9 in SW 2.3 mph 2.3 mph 63 % 0 in
22:30 72.3 °F 64.2 °F 30 in Calm     76 % 0 in
22:31 77 °F 63.3 °F 29.9 in SW 3.1 mph 3.1 mph 63 % 0 in
22:36 77 °F 63.3 °F 29.9 in SW 2.3 mph 2.3 mph 63 % 0 in
22:40 72.5 °F 64.9 °F 30 in ENE 1 mph 1 mph 77 % 0 in
22:41 76.8 °F 63.7 °F 29.9 in SW 3.5 mph 3.5 mph 64 % 0 in
22:46 76.8 °F 64.2 °F 29.9 in WSW 1.2 mph 1.2 mph 65 % 0 in
22:50 72.7 °F 65.1 °F 30 in Calm   2 mph 77 % 0 in
22:51 76.6 °F 64 °F 29.9 in WSW 1.2 mph 1.2 mph 65 % 0 in
22:56 76.6 °F 64 °F 29.9 in WNW 1.2 mph   65 % 0 in
22:57 76.6 °F 64 °F 29.9 in Calm     65 % 0 in
23:00 72.7 °F 65.1 °F 30 in NE 1 mph 2 mph 77 % 0 in
23:02 76.6 °F 64 °F 29.9 in West 1.2 mph 1.2 mph 65 % 0 in
23:07 76.5 °F 64.2 °F 29.9 in Calm     66 % 0 in
23:10 73 °F 65.5 °F 30 in NNE 1 mph 2 mph 77 % 0 in
23:12 76.5 °F 64.2 °F 29.9 in WSW 0.9 mph   66 % 0 in
23:17 76.3 °F 64 °F 29.9 in Calm     66 % 0 in
23:20 73.2 °F 65.7 °F 30 in NNE 2 mph 3 mph 77 % 0 in
23:22 76.3 °F 64 °F 29.9 in Calm     66 % 0 in
23:27 76.1 °F 64.2 °F 29.9 in WSW 1.4 mph 1.4 mph 67 % 0 in
23:30 73.2 °F 65.1 °F 30 in NNE 2 mph 3 mph 76 % 0 in
23:32 76.1 °F 64.2 °F 29.9 in Calm     67 % 0 in
23:37 75.9 °F 64.2 °F 29.9 in WSW 2.4 mph   67 % 0 in
23:40 72.9 °F 65.1 °F 30 in Calm   2 mph 77 % 0 in
23:42 75.9 °F 64.2 °F 29.9 in WSW 2.3 mph 2.3 mph 67 % 0 in
23:47 75.9 °F 64.2 °F 29.9 in West 2.6 mph 2.6 mph 67 % 0 in
23:50 72.7 °F 65.1 °F 30 in Calm     77 % 0 in
23:52 75.7 °F 64.4 °F 30 in WSW 1.2 mph   68 % 0 in
23:57 75.7 °F 64.4 °F 30 in WSW 1.2 mph 1.2 mph 68 % 0 in
Meteo Sesrovires
Elogis d' Weather Underground - 3.75 mb

Guio original per  Jim McMurry - jmcmurry@mwt.net Adaptat per a la plantilla per  Wim van der Kuil - Leuven-Template.eu

Trobareu la nostra informacio del temps tambe a:

Weather Underground

AWEKAS